sensor_id;sensor_type;location;lat;lon;timestamp;temperature;humidity
4673;DHT22;61885;53.560;9.940;2023-05-14T00:02:08;14.30;1.00
4673;DHT22;61885;53.560;9.940;2023-05-14T00:04:37;14.30;1.00
4673;DHT22;61885;53.560;9.940;2023-05-14T00:07:07;14.30;1.00
4673;DHT22;61885;53.560;9.940;2023-05-14T00:09:38;14.30;1.00
4673;DHT22;61885;53.560;9.940;2023-05-14T00:12:08;14.20;1.00
4673;DHT22;61885;53.560;9.940;2023-05-14T00:14:38;14.20;1.00
4673;DHT22;61885;53.560;9.940;2023-05-14T00:17:10;14.30;1.00
4673;DHT22;61885;53.560;9.940;2023-05-14T00:19:40;14.10;1.00
4673;DHT22;61885;53.560;9.940;2023-05-14T00:22:10;14.10;1.00
4673;DHT22;61885;53.560;9.940;2023-05-14T00:24:39;14.00;1.00
4673;DHT22;61885;53.560;9.940;2023-05-14T00:27:09;14.00;1.00
4673;DHT22;61885;53.560;9.940;2023-05-14T00:29:39;14.00;1.00
4673;DHT22;61885;53.560;9.940;2023-05-14T00:32:13;13.90;1.00
4673;DHT22;61885;53.560;9.940;2023-05-14T00:34:43;13.80;1.00
4673;DHT22;61885;53.560;9.940;2023-05-14T00:37:14;13.80;1.00
4673;DHT22;61885;53.560;9.940;2023-05-14T00:39:44;13.80;1.00
4673;DHT22;61885;53.560;9.940;2023-05-14T00:42:15;13.10;1.00
4673;DHT22;61885;53.560;9.940;2023-05-14T00:44:44;13.90;1.00
4673;DHT22;61885;53.560;9.940;2023-05-14T00:47:17;13.90;1.00
4673;DHT22;61885;53.560;9.940;2023-05-14T00:49:46;13.80;1.00
4673;DHT22;61885;53.560;9.940;2023-05-14T00:52:17;13.80;1.00
4673;DHT22;61885;53.560;9.940;2023-05-14T00:54:49;13.60;1.00
4673;DHT22;61885;53.560;9.940;2023-05-14T00:57:19;13.60;1.00
4673;DHT22;61885;53.560;9.940;2023-05-14T00:59:49;13.60;1.00
4673;DHT22;61885;53.560;9.940;2023-05-14T01:02:22;13.60;1.00
4673;DHT22;61885;53.560;9.940;2023-05-14T01:04:52;13.60;1.00
4673;DHT22;61885;53.560;9.940;2023-05-14T01:07:29;13.60;1.00
4673;DHT22;61885;53.560;9.940;2023-05-14T01:10:08;13.50;1.00
4673;DHT22;61885;53.560;9.940;2023-05-14T01:12:45;13.50;1.00
4673;DHT22;61885;53.560;9.940;2023-05-14T01:15:20;13.50;1.00
4673;DHT22;61885;53.560;9.940;2023-05-14T01:17:58;13.50;1.00
4673;DHT22;61885;53.560;9.940;2023-05-14T01:20:30;13.50;1.00
4673;DHT22;61885;53.560;9.940;2023-05-14T01:23:02;13.40;1.00
4673;DHT22;61885;53.560;9.940;2023-05-14T01:25:32;13.40;1.00
4673;DHT22;61885;53.560;9.940;2023-05-14T01:28:11;13.40;1.00
4673;DHT22;61885;53.560;9.940;2023-05-14T01:30:47;13.40;1.00
4673;DHT22;61885;53.560;9.940;2023-05-14T01:33:21;13.20;1.00
4673;DHT22;61885;53.560;9.940;2023-05-14T01:35:57;13.20;1.00
4673;DHT22;61885;53.560;9.940;2023-05-14T01:38:32;13.20;1.00
4673;DHT22;61885;53.560;9.940;2023-05-14T01:41:03;13.30;1.00
4673;DHT22;61885;53.560;9.940;2023-05-14T01:43:34;13.30;1.00
4673;DHT22;61885;53.560;9.940;2023-05-14T01:46:03;13.30;1.00
4673;DHT22;61885;53.560;9.940;2023-05-14T01:48:33;13.30;1.00
4673;DHT22;61885;53.560;9.940;2023-05-14T01:51:03;13.40;1.00
4673;DHT22;61885;53.560;9.940;2023-05-14T01:53:35;13.40;1.00
4673;DHT22;61885;53.560;9.940;2023-05-14T01:56:05;13.50;1.00
4673;DHT22;61885;53.560;9.940;2023-05-14T01:58:35;13.40;1.00
4673;DHT22;61885;53.560;9.940;2023-05-14T02:01:05;13.50;1.00
4673;DHT22;61885;53.560;9.940;2023-05-14T02:03:34;13.50;1.00
4673;DHT22;61885;53.560;9.940;2023-05-14T02:06:07;13.40;1.00
4673;DHT22;61885;53.560;9.940;2023-05-14T02:08:42;13.40;1.00
4673;DHT22;61885;53.560;9.940;2023-05-14T02:11:12;13.30;1.00
4673;DHT22;61885;53.560;9.940;2023-05-14T02:13:41;13.30;1.00
4673;DHT22;61885;53.560;9.940;2023-05-14T02:16:11;13.40;1.00
4673;DHT22;61885;53.560;9.940;2023-05-14T02:18:41;13.40;1.00
4673;DHT22;61885;53.560;9.940;2023-05-14T02:21:10;13.80;1.00
4673;DHT22;61885;53.560;9.940;2023-05-14T02:23:43;13.40;1.00
4673;DHT22;61885;53.560;9.940;2023-05-14T02:26:14;13.40;1.00
4673;DHT22;61885;53.560;9.940;2023-05-14T02:28:44;13.30;1.00
4673;DHT22;61885;53.560;9.940;2023-05-14T02:31:13;13.30;1.00
4673;DHT22;61885;53.560;9.940;2023-05-14T02:33:45;13.40;1.00
4673;DHT22;61885;53.560;9.940;2023-05-14T02:36:16;13.30;1.00
4673;DHT22;61885;53.560;9.940;2023-05-14T02:38:49;13.40;1.00
4673;DHT22;61885;53.560;9.940;2023-05-14T02:41:19;13.30;1.00
4673;DHT22;61885;53.560;9.940;2023-05-14T02:43:51;13.30;1.00
4673;DHT22;61885;53.560;9.940;2023-05-14T02:46:21;13.40;1.00
4673;DHT22;61885;53.560;9.940;2023-05-14T02:48:51;13.40;1.00
4673;DHT22;61885;53.560;9.940;2023-05-14T02:51:21;13.30;1.00
4673;DHT22;61885;53.560;9.940;2023-05-14T02:53:54;13.20;1.00
4673;DHT22;61885;53.560;9.940;2023-05-14T02:56:24;13.20;1.00
4673;DHT22;61885;53.560;9.940;2023-05-14T02:58:53;13.20;1.00
4673;DHT22;61885;53.560;9.940;2023-05-14T03:01:23;13.30;1.00
4673;DHT22;61885;53.560;9.940;2023-05-14T03:03:53;13.20;1.00
4673;DHT22;61885;53.560;9.940;2023-05-14T03:06:23;13.10;1.00
4673;DHT22;61885;53.560;9.940;2023-05-14T03:08:55;13.10;1.00
4673;DHT22;61885;53.560;9.940;2023-05-14T03:11:26;13.10;1.00
4673;DHT22;61885;53.560;9.940;2023-05-14T03:13:57;13.10;1.00
4673;DHT22;61885;53.560;9.940;2023-05-14T03:16:28;13.00;1.00
4673;DHT22;61885;53.560;9.940;2023-05-14T03:18:58;13.00;1.00
4673;DHT22;61885;53.560;9.940;2023-05-14T03:21:28;13.10;1.00
4673;DHT22;61885;53.560;9.940;2023-05-14T03:24:01;13.00;1.00
4673;DHT22;61885;53.560;9.940;2023-05-14T03:26:31;13.00;1.00
4673;DHT22;61885;53.560;9.940;2023-05-14T03:29:02;12.90;1.00
4673;DHT22;61885;53.560;9.940;2023-05-14T03:31:32;13.00;1.00
4673;DHT22;61885;53.560;9.940;2023-05-14T03:34:04;13.00;1.00
4673;DHT22;61885;53.560;9.940;2023-05-14T03:36:34;13.00;1.00
4673;DHT22;61885;53.560;9.940;2023-05-14T03:39:08;13.20;1.00
4673;DHT22;61885;53.560;9.940;2023-05-14T03:41:58;12.90;1.00
4673;DHT22;61885;53.560;9.940;2023-05-14T03:44:28;12.90;1.00
4673;DHT22;61885;53.560;9.940;2023-05-14T03:46:58;12.90;1.00
4673;DHT22;61885;53.560;9.940;2023-05-14T03:49:27;12.80;1.00
4673;DHT22;61885;53.560;9.940;2023-05-14T03:51:57;12.60;1.00
4673;DHT22;61885;53.560;9.940;2023-05-14T03:54:30;12.60;1.00
4673;DHT22;61885;53.560;9.940;2023-05-14T03:57:01;12.40;1.00
4673;DHT22;61885;53.560;9.940;2023-05-14T03:59:32;12.80;1.00
4673;DHT22;61885;53.560;9.940;2023-05-14T04:02:03;12.70;1.00
4673;DHT22;61885;53.560;9.940;2023-05-14T04:04:33;12.60;1.00
4673;DHT22;61885;53.560;9.940;2023-05-14T04:07:03;12.50;1.00
4673;DHT22;61885;53.560;9.940;2023-05-14T04:09:46;12.50;1.00
4673;DHT22;61885;53.560;9.940;2023-05-14T04:12:15;12.70;1.00
4673;DHT22;61885;53.560;9.940;2023-05-14T04:14:47;12.60;1.00
4673;DHT22;61885;53.560;9.940;2023-05-14T04:17:17;12.60;1.00
4673;DHT22;61885;53.560;9.940;2023-05-14T04:19:48;12.70;1.00
4673;DHT22;61885;53.560;9.940;2023-05-14T04:22:17;12.70;1.00
4673;DHT22;61885;53.560;9.940;2023-05-14T04:24:50;12.70;1.00
4673;DHT22;61885;53.560;9.940;2023-05-14T04:27:20;12.80;1.00
4673;DHT22;61885;53.560;9.940;2023-05-14T04:29:50;13.10;1.00
4673;DHT22;61885;53.560;9.940;2023-05-14T04:32:19;12.90;1.00
4673;DHT22;61885;53.560;9.940;2023-05-14T04:34:50;13.00;1.00
4673;DHT22;61885;53.560;9.940;2023-05-14T04:37:20;13.00;1.00
4673;DHT22;61885;53.560;9.940;2023-05-14T04:39:54;12.90;1.00
4673;DHT22;61885;53.560;9.940;2023-05-14T04:42:23;13.00;1.00
4673;DHT22;61885;53.560;9.940;2023-05-14T04:44:53;12.90;1.00
4673;DHT22;61885;53.560;9.940;2023-05-14T04:47:23;12.80;1.00
4673;DHT22;61885;53.560;9.940;2023-05-14T04:49:53;12.80;1.00
4673;DHT22;61885;53.560;9.940;2023-05-14T04:52:24;12.80;1.00
4673;DHT22;61885;53.560;9.940;2023-05-14T04:54:56;12.90;1.00
4673;DHT22;61885;53.560;9.940;2023-05-14T04:57:25;13.00;1.00
4673;DHT22;61885;53.560;9.940;2023-05-14T04:59:55;13.10;1.00
4673;DHT22;61885;53.560;9.940;2023-05-14T05:02:25;13.10;1.00
4673;DHT22;61885;53.560;9.940;2023-05-14T05:04:54;13.10;1.00
4673;DHT22;61885;53.560;9.940;2023-05-14T05:07:24;13.20;1.00
4673;DHT22;61885;53.560;9.940;2023-05-14T05:09:57;13.20;1.00
4673;DHT22;61885;53.560;9.940;2023-05-14T05:12:27;13.20;1.00
4673;DHT22;61885;53.560;9.940;2023-05-14T05:14:57;13.20;1.00
4673;DHT22;61885;53.560;9.940;2023-05-14T05:17:29;13.40;1.00
4673;DHT22;61885;53.560;9.940;2023-05-14T05:19:58;13.50;1.00
4673;DHT22;61885;53.560;9.940;2023-05-14T05:22:30;13.50;1.00
4673;DHT22;61885;53.560;9.940;2023-05-14T05:25:03;13.60;1.00
4673;DHT22;61885;53.560;9.940;2023-05-14T05:27:34;13.50;1.00
4673;DHT22;61885;53.560;9.940;2023-05-14T05:30:05;13.60;1.00
4673;DHT22;61885;53.560;9.940;2023-05-14T05:32:35;13.60;1.00
4673;DHT22;61885;53.560;9.940;2023-05-14T05:35:06;13.60;1.00
4673;DHT22;61885;53.560;9.940;2023-05-14T05:37:36;13.70;1.00
4673;DHT22;61885;53.560;9.940;2023-05-14T05:40:10;13.80;1.00
4673;DHT22;61885;53.560;9.940;2023-05-14T05:42:40;13.90;1.00
4673;DHT22;61885;53.560;9.940;2023-05-14T05:45:10;13.90;1.00
4673;DHT22;61885;53.560;9.940;2023-05-14T05:47:40;14.10;1.00
4673;DHT22;61885;53.560;9.940;2023-05-14T05:50:10;14.20;1.00
4673;DHT22;61885;53.560;9.940;2023-05-14T05:52:42;14.30;1.00
4673;DHT22;61885;53.560;9.940;2023-05-14T05:55:15;14.30;1.00
4673;DHT22;61885;53.560;9.940;2023-05-14T05:57:44;14.50;1.00
4673;DHT22;61885;53.560;9.940;2023-05-14T06:00:16;14.50;1.00
4673;DHT22;61885;53.560;9.940;2023-05-14T06:02:48;14.60;1.00
4673;DHT22;61885;53.560;9.940;2023-05-14T06:05:17;14.80;1.00
4673;DHT22;61885;53.560;9.940;2023-05-14T06:07:49;14.80;1.00
4673;DHT22;61885;53.560;9.940;2023-05-14T06:10:21;14.90;1.00
4673;DHT22;61885;53.560;9.940;2023-05-14T06:12:53;15.00;1.00
4673;DHT22;61885;53.560;9.940;2023-05-14T06:15:24;15.00;1.00
4673;DHT22;61885;53.560;9.940;2023-05-14T06:17:54;15.20;1.00
4673;DHT22;61885;53.560;9.940;2023-05-14T06:20:24;15.10;1.00
4673;DHT22;61885;53.560;9.940;2023-05-14T06:22:54;15.20;1.00
4673;DHT22;61885;53.560;9.940;2023-05-14T06:25:27;15.30;1.00
4673;DHT22;61885;53.560;9.940;2023-05-14T06:27:56;15.40;1.00
4673;DHT22;61885;53.560;9.940;2023-05-14T06:30:29;15.50;1.00
4673;DHT22;61885;53.560;9.940;2023-05-14T06:33:02;15.60;1.00
4673;DHT22;61885;53.560;9.940;2023-05-14T06:35:33;16.30;1.00
4673;DHT22;61885;53.560;9.940;2023-05-14T06:38:07;15.70;1.00
4673;DHT22;61885;53.560;9.940;2023-05-14T06:40:40;16.10;1.00
4673;DHT22;61885;53.560;9.940;2023-05-14T06:43:11;15.70;1.00
4673;DHT22;61885;53.560;9.940;2023-05-14T06:45:41;15.90;1.00
4673;DHT22;61885;53.560;9.940;2023-05-14T06:48:10;16.00;1.00
4673;DHT22;61885;53.560;9.940;2023-05-14T06:50:40;16.20;1.00
4673;DHT22;61885;53.560;9.940;2023-05-14T06:53:10;16.20;1.00
4673;DHT22;61885;53.560;9.940;2023-05-14T06:55:42;16.50;1.00
4673;DHT22;61885;53.560;9.940;2023-05-14T06:58:12;17.00;1.00
4673;DHT22;61885;53.560;9.940;2023-05-14T07:00:42;16.50;1.00
4673;DHT22;61885;53.560;9.940;2023-05-14T07:03:12;16.60;1.00
4673;DHT22;61885;53.560;9.940;2023-05-14T07:05:44;17.10;1.00
4673;DHT22;61885;53.560;9.940;2023-05-14T07:08:14;16.70;1.00
4673;DHT22;61885;53.560;9.940;2023-05-14T07:10:48;16.80;1.00
4673;DHT22;61885;53.560;9.940;2023-05-14T07:13:18;16.90;1.00
4673;DHT22;61885;53.560;9.940;2023-05-14T07:15:48;16.90;1.00
4673;DHT22;61885;53.560;9.940;2023-05-14T07:18:18;16.90;1.00
4673;DHT22;61885;53.560;9.940;2023-05-14T07:20:50;17.00;1.00
4673;DHT22;61885;53.560;9.940;2023-05-14T07:23:20;17.20;1.00
4673;DHT22;61885;53.560;9.940;2023-05-14T07:25:52;17.30;1.00
4673;DHT22;61885;53.560;9.940;2023-05-14T07:28:22;17.40;1.00
4673;DHT22;61885;53.560;9.940;2023-05-14T07:30:52;17.50;1.00
4673;DHT22;61885;53.560;9.940;2023-05-14T07:33:24;17.50;1.00
4673;DHT22;61885;53.560;9.940;2023-05-14T07:35:56;17.70;1.00
4673;DHT22;61885;53.560;9.940;2023-05-14T07:38:26;17.70;1.00
4673;DHT22;61885;53.560;9.940;2023-05-14T07:41:01;17.90;1.00
4673;DHT22;61885;53.560;9.940;2023-05-14T07:43:33;18.00;1.00
4673;DHT22;61885;53.560;9.940;2023-05-14T07:46:04;18.00;1.00
4673;DHT22;61885;53.560;9.940;2023-05-14T07:48:33;18.00;1.00
4673;DHT22;61885;53.560;9.940;2023-05-14T07:51:03;17.90;1.00
4673;DHT22;61885;53.560;9.940;2023-05-14T07:53:33;18.00;1.00
4673;DHT22;61885;53.560;9.940;2023-05-14T07:56:07;18.20;1.00
4673;DHT22;61885;53.560;9.940;2023-05-14T07:58:36;18.30;1.00
4673;DHT22;61885;53.560;9.940;2023-05-14T08:01:08;18.40;1.00
4673;DHT22;61885;53.560;9.940;2023-05-14T08:03:38;18.50;1.00
4673;DHT22;61885;53.560;9.940;2023-05-14T08:06:11;18.60;1.00
4673;DHT22;61885;53.560;9.940;2023-05-14T08:08:41;18.90;1.00
4673;DHT22;61885;53.560;9.940;2023-05-14T08:11:16;18.90;1.00
4673;DHT22;61885;53.560;9.940;2023-05-14T08:13:47;19.00;1.00
4673;DHT22;61885;53.560;9.940;2023-05-14T08:16:25;18.90;1.00
4673;DHT22;61885;53.560;9.940;2023-05-14T08:18:57;20.30;1.00
4673;DHT22;61885;53.560;9.940;2023-05-14T08:21:29;19.00;1.00
4673;DHT22;61885;53.560;9.940;2023-05-14T08:24:05;19.10;1.00
4673;DHT22;61885;53.560;9.940;2023-05-14T08:26:43;19.00;1.00
4673;DHT22;61885;53.560;9.940;2023-05-14T08:29:12;19.10;1.00
4673;DHT22;61885;53.560;9.940;2023-05-14T08:31:43;19.40;1.00
4673;DHT22;61885;53.560;9.940;2023-05-14T08:34:20;19.50;1.00
4673;DHT22;61885;53.560;9.940;2023-05-14T08:36:54;19.40;1.00
4673;DHT22;61885;53.560;9.940;2023-05-14T08:39:27;19.50;1.00
4673;DHT22;61885;53.560;9.940;2023-05-14T08:42:01;19.50;1.00
4673;DHT22;61885;53.560;9.940;2023-05-14T08:44:38;19.70;1.00
4673;DHT22;61885;53.560;9.940;2023-05-14T08:47:12;19.70;1.00
4673;DHT22;61885;53.560;9.940;2023-05-14T08:49:46;19.70;1.00
4673;DHT22;61885;53.560;9.940;2023-05-14T08:52:17;20.10;1.00
4673;DHT22;61885;53.560;9.940;2023-05-14T08:54:51;20.00;1.00
4673;DHT22;61885;53.560;9.940;2023-05-14T08:57:25;19.70;1.00
4673;DHT22;61885;53.560;9.940;2023-05-14T08:59:56;19.60;1.00
4673;DHT22;61885;53.560;9.940;2023-05-14T09:02:34;19.80;1.00
4673;DHT22;61885;53.560;9.940;2023-05-14T09:05:07;20.00;1.00
4673;DHT22;61885;53.560;9.940;2023-05-14T09:07:38;20.10;1.00
4673;DHT22;61885;53.560;9.940;2023-05-14T09:10:08;20.00;1.00
4673;DHT22;61885;53.560;9.940;2023-05-14T09:12:43;19.90;1.00
4673;DHT22;61885;53.560;9.940;2023-05-14T09:15:15;20.10;1.00
4673;DHT22;61885;53.560;9.940;2023-05-14T09:17:49;19.90;1.00
4673;DHT22;61885;53.560;9.940;2023-05-14T09:20:23;20.10;1.00
4673;DHT22;61885;53.560;9.940;2023-05-14T09:23:01;20.10;1.00
4673;DHT22;61885;53.560;9.940;2023-05-14T09:25:31;20.20;1.00
4673;DHT22;61885;53.560;9.940;2023-05-14T09:28:08;20.40;1.00
4673;DHT22;61885;53.560;9.940;2023-05-14T09:30:37;21.10;1.00
4673;DHT22;61885;53.560;9.940;2023-05-14T09:33:08;20.70;1.00
4673;DHT22;61885;53.560;9.940;2023-05-14T09:35:46;20.60;1.00
4673;DHT22;61885;53.560;9.940;2023-05-14T09:38:18;21.00;1.00
4673;DHT22;61885;53.560;9.940;2023-05-14T09:40:47;20.60;1.00
4673;DHT22;61885;53.560;9.940;2023-05-14T09:43:20;20.70;1.00
4673;DHT22;61885;53.560;9.940;2023-05-14T09:45:49;20.30;1.00
4673;DHT22;61885;53.560;9.940;2023-05-14T09:48:19;20.60;1.00
4673;DHT22;61885;53.560;9.940;2023-05-14T09:50:49;20.50;1.00
4673;DHT22;61885;53.560;9.940;2023-05-14T09:53:20;20.70;1.00
4673;DHT22;61885;53.560;9.940;2023-05-14T09:55:51;20.80;1.00
4673;DHT22;61885;53.560;9.940;2023-05-14T09:58:23;20.90;1.00
4673;DHT22;61885;53.560;9.940;2023-05-14T10:00:57;20.70;1.00
4673;DHT22;61885;53.560;9.940;2023-05-14T10:03:31;20.70;1.00
4673;DHT22;61885;53.560;9.940;2023-05-14T10:06:05;21.00;1.00
4673;DHT22;61885;53.560;9.940;2023-05-14T10:08:37;21.00;1.00
4673;DHT22;61885;53.560;9.940;2023-05-14T10:11:14;21.00;1.00
4673;DHT22;61885;53.560;9.940;2023-05-14T10:14:00;21.20;1.00
4673;DHT22;61885;53.560;9.940;2023-05-14T10:16:36;21.20;1.00
4673;DHT22;61885;53.560;9.940;2023-05-14T10:19:13;21.10;1.00
4673;DHT22;61885;53.560;9.940;2023-05-14T10:21:46;21.10;1.00
4673;DHT22;61885;53.560;9.940;2023-05-14T10:24:17;21.10;1.00
4673;DHT22;61885;53.560;9.940;2023-05-14T10:26:48;21.20;1.00
4673;DHT22;61885;53.560;9.940;2023-05-14T10:29:38;21.50;1.00
4673;DHT22;61885;53.560;9.940;2023-05-14T10:32:10;21.60;1.00
4673;DHT22;61885;53.560;9.940;2023-05-14T10:34:41;21.80;1.00
4673;DHT22;61885;53.560;9.940;2023-05-14T10:37:19;21.70;1.00
4673;DHT22;61885;53.560;9.940;2023-05-14T10:39:53;21.90;1.00
4673;DHT22;61885;53.560;9.940;2023-05-14T10:42:27;21.40;1.00
4673;DHT22;61885;53.560;9.940;2023-05-14T10:45:01;21.50;1.00
4673;DHT22;61885;53.560;9.940;2023-05-14T10:47:39;21.10;1.00
4673;DHT22;61885;53.560;9.940;2023-05-14T10:50:11;21.20;1.00
4673;DHT22;61885;53.560;9.940;2023-05-14T10:52:43;21.50;1.00
4673;DHT22;61885;53.560;9.940;2023-05-14T10:55:16;21.40;1.00
4673;DHT22;61885;53.560;9.940;2023-05-14T10:57:47;21.50;1.00
4673;DHT22;61885;53.560;9.940;2023-05-14T11:00:24;21.40;1.00
4673;DHT22;61885;53.560;9.940;2023-05-14T11:02:58;21.60;1.00
4673;DHT22;61885;53.560;9.940;2023-05-14T11:05:30;21.50;1.00
4673;DHT22;61885;53.560;9.940;2023-05-14T11:08:04;21.30;1.00
4673;DHT22;61885;53.560;9.940;2023-05-14T11:10:35;21.40;1.00
4673;DHT22;61885;53.560;9.940;2023-05-14T11:13:05;21.50;1.00
4673;DHT22;61885;53.560;9.940;2023-05-14T11:15:56;21.80;1.00
4673;DHT22;61885;53.560;9.940;2023-05-14T11:18:27;21.60;1.00
4673;DHT22;61885;53.560;9.940;2023-05-14T11:20:59;21.80;1.00
4673;DHT22;61885;53.560;9.940;2023-05-14T11:23:28;21.70;1.00
4673;DHT22;61885;53.560;9.940;2023-05-14T11:26:00;21.80;1.00
4673;DHT22;61885;53.560;9.940;2023-05-14T11:28:29;22.30;1.00
4673;DHT22;61885;53.560;9.940;2023-05-14T11:31:02;22.20;1.00
4673;DHT22;61885;53.560;9.940;2023-05-14T11:33:32;22.40;1.00
4673;DHT22;61885;53.560;9.940;2023-05-14T11:36:04;22.40;1.00
4673;DHT22;61885;53.560;9.940;2023-05-14T11:38:45;22.40;1.00
4673;DHT22;61885;53.560;9.940;2023-05-14T11:41:18;22.10;1.00
4673;DHT22;61885;53.560;9.940;2023-05-14T11:43:48;21.80;1.00
4673;DHT22;61885;53.560;9.940;2023-05-14T11:46:20;22.10;1.00
4673;DHT22;61885;53.560;9.940;2023-05-14T11:48:51;22.70;1.00
4673;DHT22;61885;53.560;9.940;2023-05-14T11:51:21;22.90;1.00
4673;DHT22;61885;53.560;9.940;2023-05-14T11:53:56;23.20;1.00
4673;DHT22;61885;53.560;9.940;2023-05-14T11:56:30;23.60;1.00
4673;DHT22;61885;53.560;9.940;2023-05-14T11:59:00;23.40;1.00
4673;DHT22;61885;53.560;9.940;2023-05-14T12:01:39;23.80;1.00
4673;DHT22;61885;53.560;9.940;2023-05-14T12:04:08;23.50;1.00
4673;DHT22;61885;53.560;9.940;2023-05-14T12:06:41;24.10;1.00
4673;DHT22;61885;53.560;9.940;2023-05-14T12:09:12;24.40;1.00
4673;DHT22;61885;53.560;9.940;2023-05-14T12:11:43;24.00;1.00
4673;DHT22;61885;53.560;9.940;2023-05-14T12:14:27;23.70;1.00
4673;DHT22;61885;53.560;9.940;2023-05-14T12:17:17;23.40;1.00
4673;DHT22;61885;53.560;9.940;2023-05-14T12:19:49;23.30;1.00
4673;DHT22;61885;53.560;9.940;2023-05-14T12:22:22;23.50;1.00
4673;DHT22;61885;53.560;9.940;2023-05-14T12:24:53;23.80;1.00
4673;DHT22;61885;53.560;9.940;2023-05-14T12:27:24;24.00;1.00
4673;DHT22;61885;53.560;9.940;2023-05-14T12:29:57;24.30;1.00
4673;DHT22;61885;53.560;9.940;2023-05-14T12:32:34;24.50;1.00
4673;DHT22;61885;53.560;9.940;2023-05-14T12:35:05;24.50;1.00
4673;DHT22;61885;53.560;9.940;2023-05-14T12:37:37;24.30;1.00
4673;DHT22;61885;53.560;9.940;2023-05-14T12:40:10;24.20;1.00
4673;DHT22;61885;53.560;9.940;2023-05-14T12:42:41;24.20;1.00
4673;DHT22;61885;53.560;9.940;2023-05-14T12:45:13;24.60;1.00
4673;DHT22;61885;53.560;9.940;2023-05-14T12:47:49;24.40;1.00
4673;DHT22;61885;53.560;9.940;2023-05-14T12:50:23;24.40;1.00
4673;DHT22;61885;53.560;9.940;2023-05-14T12:52:54;24.10;1.00
4673;DHT22;61885;53.560;9.940;2023-05-14T12:55:26;23.90;1.00
4673;DHT22;61885;53.560;9.940;2023-05-14T12:57:57;23.50;1.00
4673;DHT22;61885;53.560;9.940;2023-05-14T13:00:26;23.50;1.00
4673;DHT22;61885;53.560;9.940;2023-05-14T13:02:59;23.40;1.00
4673;DHT22;61885;53.560;9.940;2023-05-14T13:05:29;23.30;1.00
4673;DHT22;61885;53.560;9.940;2023-05-14T13:07:59;23.50;1.00
4673;DHT22;61885;53.560;9.940;2023-05-14T13:10:30;24.00;1.00
4673;DHT22;61885;53.560;9.940;2023-05-14T13:13:00;24.00;1.00
4673;DHT22;61885;53.560;9.940;2023-05-14T13:15:31;24.00;1.00
4673;DHT22;61885;53.560;9.940;2023-05-14T13:18:06;24.20;1.00
4673;DHT22;61885;53.560;9.940;2023-05-14T13:20:42;24.50;1.00
4673;DHT22;61885;53.560;9.940;2023-05-14T13:23:12;24.80;1.00
4673;DHT22;61885;53.560;9.940;2023-05-14T13:26:03;24.60;1.00
4673;DHT22;61885;53.560;9.940;2023-05-14T13:28:33;24.20;1.00
4673;DHT22;61885;53.560;9.940;2023-05-14T13:31:09;24.20;1.00
4673;DHT22;61885;53.560;9.940;2023-05-14T13:33:45;24.50;1.00
4673;DHT22;61885;53.560;9.940;2023-05-14T13:36:14;24.20;1.00
4673;DHT22;61885;53.560;9.940;2023-05-14T13:38:46;24.20;1.00
4673;DHT22;61885;53.560;9.940;2023-05-14T13:41:18;24.10;1.00
4673;DHT22;61885;53.560;9.940;2023-05-14T13:43:52;24.30;1.00
4673;DHT22;61885;53.560;9.940;2023-05-14T13:46:24;25.00;1.00
4673;DHT22;61885;53.560;9.940;2023-05-14T13:48:59;25.10;1.00
4673;DHT22;61885;53.560;9.940;2023-05-14T13:51:31;25.10;1.00
4673;DHT22;61885;53.560;9.940;2023-05-14T13:54:03;25.30;1.00
4673;DHT22;61885;53.560;9.940;2023-05-14T13:56:34;25.50;1.00
4673;DHT22;61885;53.560;9.940;2023-05-14T13:59:05;25.50;1.00
4673;DHT22;61885;53.560;9.940;2023-05-14T14:01:37;25.50;1.00
4673;DHT22;61885;53.560;9.940;2023-05-14T14:04:13;25.20;1.00
4673;DHT22;61885;53.560;9.940;2023-05-14T14:06:43;25.80;1.00
4673;DHT22;61885;53.560;9.940;2023-05-14T14:09:15;25.30;1.00
4673;DHT22;61885;53.560;9.940;2023-05-14T14:11:51;24.80;1.00
4673;DHT22;61885;53.560;9.940;2023-05-14T14:14:27;25.10;1.00
4673;DHT22;61885;53.560;9.940;2023-05-14T14:16:58;25.80;1.00
4673;DHT22;61885;53.560;9.940;2023-05-14T14:19:31;25.90;1.00
4673;DHT22;61885;53.560;9.940;2023-05-14T14:22:05;25.80;1.00
4673;DHT22;61885;53.560;9.940;2023-05-14T14:24:44;26.80;1.00
4673;DHT22;61885;53.560;9.940;2023-05-14T14:27:21;27.50;1.00
4673;DHT22;61885;53.560;9.940;2023-05-14T14:29:55;28.20;1.00
4673;DHT22;61885;53.560;9.940;2023-05-14T14:32:28;28.30;1.00
4673;DHT22;61885;53.560;9.940;2023-05-14T14:35:00;28.40;1.00
4673;DHT22;61885;53.560;9.940;2023-05-14T14:37:33;28.30;1.00
4673;DHT22;61885;53.560;9.940;2023-05-14T14:40:09;29.10;1.00
4673;DHT22;61885;53.560;9.940;2023-05-14T14:42:39;27.80;1.00
4673;DHT22;61885;53.560;9.940;2023-05-14T14:45:10;27.70;1.00
4673;DHT22;61885;53.560;9.940;2023-05-14T14:47:44;28.50;1.00
4673;DHT22;61885;53.560;9.940;2023-05-14T14:50:17;29.90;1.00
4673;DHT22;61885;53.560;9.940;2023-05-14T14:52:49;29.90;1.00
4673;DHT22;61885;53.560;9.940;2023-05-14T14:55:19;29.80;1.00
4673;DHT22;61885;53.560;9.940;2023-05-14T14:57:54;29.20;1.00
4673;DHT22;61885;53.560;9.940;2023-05-14T15:00:24;27.40;1.00
4673;DHT22;61885;53.560;9.940;2023-05-14T15:03:02;27.20;1.00
4673;DHT22;61885;53.560;9.940;2023-05-14T15:05:36;26.90;1.00
4673;DHT22;61885;53.560;9.940;2023-05-14T15:08:06;26.80;1.00
4673;DHT22;61885;53.560;9.940;2023-05-14T15:10:36;27.20;1.00
4673;DHT22;61885;53.560;9.940;2023-05-14T15:13:07;26.80;1.00
4673;DHT22;61885;53.560;9.940;2023-05-14T15:15:39;27.40;1.00
4673;DHT22;61885;53.560;9.940;2023-05-14T15:18:09;28.40;1.00
4673;DHT22;61885;53.560;9.940;2023-05-14T15:20:45;29.10;1.00
4673;DHT22;61885;53.560;9.940;2023-05-14T15:23:15;29.30;1.00
4673;DHT22;61885;53.560;9.940;2023-05-14T15:25:45;30.60;1.00
4673;DHT22;61885;53.560;9.940;2023-05-14T15:28:17;30.80;1.00
4673;DHT22;61885;53.560;9.940;2023-05-14T15:30:47;31.50;1.00
4673;DHT22;61885;53.560;9.940;2023-05-14T15:33:19;31.70;1.00
4673;DHT22;61885;53.560;9.940;2023-05-14T15:35:59;29.70;1.00
4673;DHT22;61885;53.560;9.940;2023-05-14T15:38:46;29.70;1.00
4673;DHT22;61885;53.560;9.940;2023-05-14T15:41:19;29.90;1.00
4673;DHT22;61885;53.560;9.940;2023-05-14T15:43:51;30.60;1.00
4673;DHT22;61885;53.560;9.940;2023-05-14T15:46:24;31.30;1.00
4673;DHT22;61885;53.560;9.940;2023-05-14T15:48:57;29.20;1.00
4673;DHT22;61885;53.560;9.940;2023-05-14T15:51:34;29.50;1.00
4673;DHT22;61885;53.560;9.940;2023-05-14T15:54:07;29.90;1.00
4673;DHT22;61885;53.560;9.940;2023-05-14T15:56:37;29.40;1.00
4673;DHT22;61885;53.560;9.940;2023-05-14T15:59:07;30.40;1.00
4673;DHT22;61885;53.560;9.940;2023-05-14T16:01:36;30.80;1.00
4673;DHT22;61885;53.560;9.940;2023-05-14T16:04:06;30.80;1.00
4673;DHT22;61885;53.560;9.940;2023-05-14T16:06:38;29.30;1.00
4673;DHT22;61885;53.560;9.940;2023-05-14T16:09:13;29.50;1.00
4673;DHT22;61885;53.560;9.940;2023-05-14T16:11:42;29.10;1.00
4673;DHT22;61885;53.560;9.940;2023-05-14T16:14:14;29.90;1.00
4673;DHT22;61885;53.560;9.940;2023-05-14T16:16:46;30.70;1.00
4673;DHT22;61885;53.560;9.940;2023-05-14T16:19:18;30.10;1.00
4673;DHT22;61885;53.560;9.940;2023-05-14T16:21:50;29.70;1.00
4673;DHT22;61885;53.560;9.940;2023-05-14T16:24:23;28.80;1.00
4673;DHT22;61885;53.560;9.940;2023-05-14T16:26:54;27.70;1.00
4673;DHT22;61885;53.560;9.940;2023-05-14T16:29:27;26.70;1.00
4673;DHT22;61885;53.560;9.940;2023-05-14T16:31:59;26.40;1.00
4673;DHT22;61885;53.560;9.940;2023-05-14T16:34:29;25.40;1.00